createdAt,value
2022-11-14T00:01:42.687Z,8.20
2022-11-14T00:05:02.630Z,9.30
2022-11-14T00:08:27.830Z,8.02
2022-11-14T00:11:48.029Z,7.72
2022-11-14T00:15:08.597Z,8.90
2022-11-14T00:21:48.810Z,6.80
2022-11-14T00:25:09.681Z,9.98
2022-11-14T00:28:30.210Z,10.02
2022-11-14T00:31:50.883Z,9.77
2022-11-14T00:35:10.799Z,9.23
2022-11-14T00:38:31.149Z,7.73
2022-11-14T00:41:51.317Z,8.00
2022-11-14T00:45:12.043Z,12.00
2022-11-14T00:48:32.339Z,8.38
2022-11-14T10:48:21.272Z,12.00
2022-11-14T10:51:50.089Z,12.02
2022-11-14T10:55:18.503Z,10.68
2022-11-14T10:58:48.404Z,10.93
2022-11-14T11:05:30.929Z,10.98
2022-11-14T11:12:50.688Z,10.23
2022-11-14T11:16:11.304Z,11.05
2022-11-14T11:23:22.611Z,9.40
2022-11-14T11:26:43.191Z,8.95
2022-11-14T11:30:06.563Z,9.88
2022-11-14T11:33:32.335Z,13.23
2022-11-14T11:37:19.098Z,10.13
2022-11-14T11:40:41.426Z,8.40
2022-11-14T11:44:05.508Z,9.35
2022-11-14T11:47:29.290Z,9.18
2022-11-14T11:50:50.037Z,9.23
2022-11-14T11:54:12.986Z,9.50
2022-11-14T11:57:43.192Z,9.23
2022-11-14T12:01:03.316Z,11.05
2022-11-14T12:04:23.499Z,8.17
2022-11-14T12:07:43.751Z,10.32
2022-11-14T12:11:06.583Z,14.77
2022-11-14T12:14:55.491Z,9.05
2022-11-14T12:18:30.606Z,10.68
2022-11-14T12:22:03.776Z,11.02
2022-11-14T12:25:32.700Z,9.60
2022-11-14T12:28:59.376Z,9.93
2022-11-14T12:32:32.540Z,10.98
2022-11-14T12:35:59.449Z,8.30
2022-11-14T12:39:26.560Z,8.43
2022-11-14T12:42:48.496Z,9.40
2022-11-14T12:46:11.567Z,8.48
2022-11-14T12:49:38.144Z,8.13
2022-11-14T12:52:58.074Z,9.25
2022-11-14T12:56:33.264Z,9.40
2022-11-14T13:00:02.385Z,10.52
2022-11-14T13:03:48.743Z,8.05
2022-11-14T13:07:50.705Z,8.50
2022-11-14T13:11:50.996Z,8.95
2022-11-14T13:15:49.111Z,8.05
2022-11-14T13:19:46.632Z,9.77
2022-11-14T13:23:25.370Z,9.02
2022-11-14T13:26:46.833Z,8.63
2022-11-14T13:30:08.131Z,7.25
2022-11-14T13:33:41.980Z,9.15
2022-11-14T13:37:25.096Z,8.43
2022-11-14T13:40:51.122Z,8.15
2022-11-14T13:44:42.465Z,9.55
2022-11-14T13:48:36.279Z,10.45
2022-11-14T13:51:56.812Z,10.93
2022-11-14T13:55:32.557Z,10.25
2022-11-14T13:59:20.419Z,9.57
2022-11-14T14:03:11.596Z,12.07
2022-11-14T14:06:56.830Z,12.27
2022-11-14T14:10:19.745Z,12.40
2022-11-14T14:14:19.353Z,11.18
2022-11-14T14:17:51.286Z,13.50
2022-11-14T14:21:17.739Z,11.57
2022-11-14T14:24:54.537Z,11.30
2022-11-14T14:28:46.893Z,12.48
2022-11-14T14:32:19.240Z,12.65
2022-11-14T14:35:40.939Z,12.48
2022-11-14T14:39:28.302Z,9.63
2022-11-14T14:42:49.211Z,10.02
2022-11-14T14:46:09.785Z,10.70
2022-11-14T14:49:38.000Z,10.80
2022-11-14T14:53:00.005Z,11.07
2022-11-14T14:56:22.389Z,10.70
2022-11-14T14:59:42.321Z,9.48
2022-11-14T15:03:02.889Z,9.27
2022-11-14T15:06:31.796Z,11.05
2022-11-14T15:10:00.546Z,10.88
2022-11-14T15:13:20.524Z,9.00
2022-11-14T15:16:41.555Z,11.90
2022-11-14T15:23:21.411Z,12.20
2022-11-14T15:26:47.188Z,10.70
2022-11-14T15:30:20.905Z,9.80
2022-11-14T15:33:41.124Z,12.02
2022-11-14T15:37:10.262Z,9.98
2022-11-14T15:40:35.457Z,10.32
2022-11-14T15:44:02.533Z,10.23
2022-11-14T15:47:25.741Z,13.35
2022-11-14T15:50:50.367Z,12.10
2022-11-14T15:54:31.127Z,14.68
2022-11-14T16:01:26.883Z,13.27
2022-11-14T21:08:41.048Z,9.13
2022-11-14T21:15:20.963Z,10.00
2022-11-14T21:18:43.926Z,7.60
2022-11-14T21:22:07.623Z,10.73
2022-11-14T21:25:27.952Z,6.35
2022-11-14T21:28:50.597Z,7.85
2022-11-14T21:32:10.689Z,6.15
2022-11-14T21:35:32.177Z,5.83
2022-11-14T21:38:52.892Z,7.47
2022-11-14T21:42:17.190Z,6.70
2022-11-14T21:45:38.788Z,7.28
2022-11-14T21:48:58.705Z,5.60
2022-11-14T21:52:18.829Z,6.03
2022-11-14T21:55:38.824Z,5.53
2022-11-14T21:59:13.078Z,8.93
2022-11-14T22:02:52.225Z,5.53
2022-11-14T22:06:12.449Z,5.00
2022-11-14T22:09:33.195Z,5.97
2022-11-14T22:12:53.165Z,5.55
2022-11-14T22:16:17.151Z,8.52
2022-11-14T22:19:37.017Z,6.88
2022-11-14T22:22:57.099Z,7.53
2022-11-14T22:26:17.264Z,6.70
2022-11-14T22:29:37.186Z,5.83
2022-11-14T22:32:59.464Z,5.60
2022-11-14T22:36:25.085Z,7.10
2022-11-14T22:39:44.910Z,8.43
2022-11-14T22:43:04.805Z,6.80
2022-11-14T22:46:25.411Z,4.70
2022-11-14T22:49:45.589Z,4.97
2022-11-14T22:53:05.906Z,5.63
2022-11-14T22:56:28.504Z,5.97
2022-11-14T22:59:48.619Z,5.63
2022-11-14T23:03:08.678Z,5.87
2022-11-14T23:06:31.039Z,6.68
2022-11-14T23:09:51.328Z,6.50
2022-11-14T23:13:12.130Z,5.10
2022-11-14T23:16:33.524Z,6.85
2022-11-14T23:19:53.725Z,7.28
2022-11-14T23:23:14.971Z,4.87
2022-11-14T23:26:34.803Z,5.63
2022-11-14T23:29:54.923Z,4.18
2022-11-14T23:33:14.758Z,5.33
2022-11-14T23:36:34.689Z,4.47
2022-11-14T23:39:54.705Z,4.13
2022-11-14T23:43:14.660Z,9.55
